Time,TemperatureF,DewpointF,PressureIn,WindDirection,WindDirectionDegrees,WindSpeedMPH,WindSpeedGustMPH,Humidity,HourlyPrecipIn,Conditions,Clouds,dailyrainin,SoftwareType,DateUTC
2013-08-07 00:21:00,77.0,52.0,29.34,SW,233,1.0,-999.0,42,0.00,,,0.00,,2013-08-07 07:21:00,
2013-08-07 00:33:00,77.0,52.0,29.34,SW,233,1.0,-999.0,42,0.00,,,0.00,,2013-08-07 07:33:00,
2013-08-07 00:43:00,77.0,52.0,29.34,SW,233,1.0,-999.0,42,0.00,,,0.00,,2013-08-07 07:43:00,
2013-08-07 02:11:00,71.0,53.0,29.35,South,186,1.0,-999.0,52,-99.99,,,0.00,,2013-08-07 09:11:00,
2013-08-07 02:22:00,71.0,53.0,29.35,South,186,1.0,-999.0,52,-99.99,,,0.00,,2013-08-07 09:22:00,
2013-08-07 02:32:00,71.0,53.0,29.35,South,186,1.0,-999.0,52,-99.99,,,0.00,,2013-08-07 09:32:00,
2013-08-07 02:43:00,71.0,53.0,29.35,South,186,1.0,-999.0,52,-99.99,,,0.00,,2013-08-07 09:43:00,
2013-08-07 03:21:00,70.0,54.0,29.36,SW,224,2.0,-999.0,55,0.00,,,0.00,,2013-08-07 10:21:00,
2013-08-07 03:32:00,70.0,54.0,29.36,SW,224,2.0,-999.0,55,0.00,,,0.00,,2013-08-07 10:32:00,
2013-08-07 03:43:00,70.0,54.0,29.36,SW,224,2.0,-999.0,55,0.00,,,0.00,,2013-08-07 10:43:00,
2013-08-07 04:11:00,68.0,56.0,29.37,SSE,166,2.0,-999.0,64,0.00,,,0.00,,2013-08-07 11:11:00,
2013-08-07 04:22:00,68.0,56.0,29.37,SSE,166,2.0,-999.0,64,0.00,,,0.00,,2013-08-07 11:22:00,
2013-08-07 04:32:00,68.0,56.0,29.37,SSE,166,2.0,-999.0,64,0.00,,,0.00,,2013-08-07 11:32:00,
2013-08-07 04:43:00,68.0,56.0,29.37,SSE,166,2.0,-999.0,64,0.00,,,0.00,,2013-08-07 11:43:00,
2013-08-07 05:11:00,67.0,55.0,29.37,South,184,2.0,-999.0,66,0.00,,,-99.99,,2013-08-07 12:11:00,
2013-08-07 05:22:00,67.0,55.0,29.37,South,184,2.0,-999.0,66,0.00,,,-99.99,,2013-08-07 12:22:00,
2013-08-07 05:32:00,67.0,55.0,29.37,South,184,2.0,-999.0,66,0.00,,,-99.99,,2013-08-07 12:32:00,
2013-08-07 05:43:00,67.0,55.0,29.37,South,184,2.0,-999.0,66,0.00,,,-99.99,,2013-08-07 12:43:00,
2013-08-07 06:22:00,64.0,56.0,29.39,South,179,2.0,-999.0,75,0.00,,,-99.99,,2013-08-07 13:22:00,
2013-08-07 06:32:00,64.0,56.0,29.39,South,179,2.0,-999.0,75,0.00,,,-99.99,,2013-08-07 13:32:00,
2013-08-07 06:44:00,64.0,56.0,29.39,South,179,2.0,-999.0,75,0.00,,,-99.99,,2013-08-07 13:44:00,
2013-08-07 07:11:00,63.0,56.0,29.40,West,264,2.0,-999.0,77,0.00,,,0.00,,2013-08-07 14:11:00,
2013-08-07 07:22:00,63.0,56.0,29.40,West,264,2.0,-999.0,77,0.00,,,0.00,,2013-08-07 14:22:00,
2013-08-07 07:33:00,63.0,56.0,29.40,West,264,2.0,-999.0,77,0.00,,,0.00,,2013-08-07 14:33:00,
2013-08-07 07:42:00,63.0,56.0,29.40,West,264,2.0,-999.0,77,0.00,,,0.00,,2013-08-07 14:42:00,
2013-08-07 08:12:00,67.0,56.0,29.41,SW,222,3.0,-999.0,68,0.00,,,0.00,,2013-08-07 15:12:00,
2013-08-07 08:22:00,67.0,56.0,29.41,SW,222,3.0,-999.0,68,0.00,,,0.00,,2013-08-07 15:22:00,
2013-08-07 08:33:00,67.0,56.0,29.41,SW,222,3.0,-999.0,68,0.00,,,0.00,,2013-08-07 15:33:00,
2013-08-07 08:43:00,67.0,56.0,29.41,SW,222,3.0,-999.0,68,0.00,,,0.00,,2013-08-07 15:43:00,
2013-08-07 09:11:00,70.0,56.0,29.42,SW,228,5.0,-999.0,62,0.00,,,0.00,,2013-08-07 16:11:00,
2013-08-07 09:22:00,70.0,56.0,29.42,SW,228,5.0,-999.0,62,0.00,,,0.00,,2013-08-07 16:22:00,
2013-08-07 09:33:00,70.0,56.0,29.42,SW,228,5.0,-999.0,62,0.00,,,0.00,,2013-08-07 16:33:00,
2013-08-07 09:43:00,70.0,56.0,29.42,SW,228,5.0,-999.0,62,0.00,,,0.00,,2013-08-07 16:43:00,
2013-08-07 10:11:00,73.0,55.0,29.43,SSW,210,3.0,-999.0,52,0.00,,,0.00,,2013-08-07 17:11:00,
2013-08-07 10:22:00,73.0,55.0,29.43,SSW,210,3.0,-999.0,52,0.00,,,0.00,,2013-08-07 17:22:00,
2013-08-07 10:33:00,73.0,55.0,29.43,SSW,210,3.0,-999.0,52,0.00,,,0.00,,2013-08-07 17:33:00,
2013-08-07 10:43:00,73.0,55.0,29.43,SSW,210,3.0,-999.0,52,0.00,,,0.00,,2013-08-07 17:43:00,
2013-08-07 11:11:00,77.0,56.0,29.44,WNW,286,3.0,-999.0,48,0.00,,,0.00,,2013-08-07 18:11:00,
2013-08-07 11:22:00,77.0,56.0,29.44,WNW,286,3.0,-999.0,48,0.00,,,0.00,,2013-08-07 18:22:00,
2013-08-07 11:32:00,77.0,56.0,29.44,WNW,286,3.0,-999.0,48,0.00,,,0.00,,2013-08-07 18:32:00,
2013-08-07 11:43:00,77.0,56.0,29.44,WNW,286,3.0,-999.0,48,0.00,,,0.00,,2013-08-07 18:43:00,
2013-08-07 12:22:00,80.0,55.0,29.44,WSW,253,4.0,-999.0,43,0.00,,,0.00,,2013-08-07 19:22:00,
2013-08-07 12:32:00,80.0,55.0,29.44,WSW,253,4.0,-999.0,43,0.00,,,0.00,,2013-08-07 19:32:00,
2013-08-07 12:43:00,80.0,55.0,29.44,WSW,253,4.0,-999.0,43,0.00,,,0.00,,2013-08-07 19:43:00,
2013-08-07 13:11:00,83.0,54.0,29.43,SSE,152,4.0,-999.0,37,0.00,,,-99.99,,2013-08-07 20:11:00,
2013-08-07 13:22:00,83.0,54.0,29.43,SSE,152,4.0,-999.0,37,0.00,,,-99.99,,2013-08-07 20:22:00,
2013-08-07 13:32:00,83.0,54.0,29.43,SSE,152,4.0,-999.0,37,0.00,,,-99.99,,2013-08-07 20:32:00,
2013-08-07 13:43:00,83.0,54.0,29.43,SSE,152,4.0,-999.0,37,0.00,,,-99.99,,2013-08-07 20:43:00,
2013-08-07 14:22:00,85.0,48.0,29.41,West,260,8.0,-999.0,28,0.00,,,-99.99,,2013-08-07 21:22:00,
2013-08-07 14:32:00,85.0,48.0,29.41,West,260,8.0,-999.0,28,0.00,,,-99.99,,2013-08-07 21:32:00,
2013-08-07 14:43:00,85.0,48.0,29.41,West,260,8.0,-999.0,28,0.00,,,-99.99,,2013-08-07 21:43:00,
2013-08-07 15:12:00,87.0,49.0,29.38,WSW,239,8.0,-999.0,27,0.01,,,0.00,,2013-08-07 22:12:00,
2013-08-07 15:22:00,87.0,49.0,29.38,WSW,239,8.0,-999.0,27,0.01,,,0.00,,2013-08-07 22:22:00,
2013-08-07 15:32:00,87.0,49.0,29.38,WSW,239,8.0,-999.0,27,0.01,,,0.00,,2013-08-07 22:32:00,
2013-08-07 15:43:00,87.0,49.0,29.38,WSW,239,8.0,-999.0,27,0.01,,,0.00,,2013-08-07 22:43:00,
2013-08-07 16:11:00,88.0,45.0,29.36,North,-999,-999.0,-999.0,22,0.00,,,0.00,,2013-08-07 23:11:00,
2013-08-07 16:43:00,88.0,45.0,29.36,North,-999,-999.0,-999.0,22,0.00,,,0.00,,2013-08-07 23:43:00,
2013-08-07 17:11:00,89.0,45.0,29.34,WNW,283,5.0,-999.0,22,0.00,,,0.00,,2013-08-08 00:11:00,
2013-08-07 17:22:00,89.0,45.0,29.34,WNW,283,5.0,-999.0,22,0.00,,,0.00,,2013-08-08 00:22:00,
2013-08-07 17:32:00,89.0,45.0,29.34,WNW,283,5.0,-999.0,22,0.00,,,0.00,,2013-08-08 00:32:00,
2013-08-07 17:42:00,89.0,45.0,29.34,WNW,283,5.0,-999.0,22,0.00,,,0.00,,2013-08-08 00:42:00,
2013-08-07 18:11:00,88.0,46.0,29.33,West,268,5.0,-999.0,23,0.00,,,0.00,,2013-08-08 01:11:00,
2013-08-07 18:22:00,88.0,46.0,29.33,West,268,5.0,-999.0,23,0.00,,,0.00,,2013-08-08 01:22:00,
2013-08-07 18:32:00,88.0,46.0,29.33,West,268,5.0,-999.0,23,0.00,,,0.00,,2013-08-08 01:32:00,
2013-08-07 18:43:00,88.0,46.0,29.33,West,268,5.0,-999.0,23,0.00,,,0.00,,2013-08-08 01:43:00,
2013-08-07 19:11:00,87.0,48.0,29.32,West,270,4.0,-999.0,26,0.00,,,0.00,,2013-08-08 02:11:00,
2013-08-07 19:22:00,87.0,48.0,29.32,West,270,4.0,-999.0,26,0.00,,,0.00,,2013-08-08 02:22:00,
2013-08-07 19:32:00,87.0,48.0,29.32,West,270,4.0,-999.0,26,0.00,,,0.00,,2013-08-08 02:32:00,
2013-08-07 19:42:00,87.0,48.0,29.32,West,270,4.0,-999.0,26,0.00,,,0.00,,2013-08-08 02:42:00,
2013-08-07 20:12:00,83.0,47.0,29.33,South,173,5.0,-999.0,28,0.00,,,-99.99,,2013-08-08 03:12:00,
2013-08-07 20:22:00,83.0,47.0,29.33,South,173,5.0,-999.0,28,0.00,,,-99.99,,2013-08-08 03:22:00,
2013-08-07 20:32:00,83.0,47.0,29.33,South,173,5.0,-999.0,28,0.00,,,-99.99,,2013-08-08 03:32:00,
2013-08-07 20:43:00,83.0,47.0,29.33,South,173,5.0,-999.0,28,0.00,,,-99.99,,2013-08-08 03:43:00,
2013-08-07 21:11:00,82.0,48.0,29.33,SSW,199,3.0,-999.0,31,-99.99,,,-99.99,,2013-08-08 04:11:00,
2013-08-07 21:22:00,82.0,48.0,29.33,SSW,199,3.0,-999.0,31,-99.99,,,-99.99,,2013-08-08 04:22:00,
2013-08-07 21:32:00,82.0,48.0,29.33,SSW,199,3.0,-999.0,31,-99.99,,,-99.99,,2013-08-08 04:32:00,
2013-08-07 21:43:00,82.0,48.0,29.33,SSW,199,3.0,-999.0,31,-99.99,,,-99.99,,2013-08-08 04:43:00,
2013-08-07 22:11:00,80.0,46.0,29.35,East,95,4.0,-999.0,31,0.00,,,-99.99,,2013-08-08 05:11:00,
2013-08-07 22:21:00,80.0,46.0,29.35,East,95,4.0,-999.0,31,0.00,,,-99.99,,2013-08-08 05:21:00,
2013-08-07 22:33:00,80.0,46.0,29.35,East,95,4.0,-999.0,31,0.00,,,-99.99,,2013-08-08 05:33:00,
2013-08-07 22:43:00,80.0,46.0,29.35,East,95,4.0,-999.0,31,0.00,,,-99.99,,2013-08-08 05:43:00,
2013-08-07 23:11:00,75.0,56.0,29.35,NNW,340,2.0,-999.0,51,0.00,,,0.00,,2013-08-08 06:11:00,
2013-08-07 23:21:00,75.0,56.0,29.35,NNW,340,2.0,-999.0,51,0.00,,,0.00,,2013-08-08 06:21:00,
2013-08-07 23:32:00,75.0,56.0,29.35,NNW,340,2.0,-999.0,51,0.00,,,0.00,,2013-08-08 06:32:00,
2013-08-07 23:42:00,75.0,56.0,29.35,NNW,340,2.0,-999.0,51,0.00,,,0.00,,2013-08-08 06:42:00,